PWSweather.com
Personal Weather Stations
Station Observations
KCATEHAC8
Golden Hills West, Tehachapi, CA 93561

Golden Hills WestTehachapi, CA 93561

Lat: 35.1464281, Lon: -118.498692

Elevation: 3862

Station Type: Davis Vantage ProII

http://mountainbase.com/weather/Current_Vantage_Pro.htm

Latest ConditionsUpdated 8:15:00 PM PDT Thursday, Apr 18, 2019
Currently Today's Max Today's Min Today's Average
Temperature 65.3°F18.5°C 84.2°F29.0°C 38.6°F3.7°C 61.3°F16.3°C
Dew Point 46.2°F7.9°C 46.3°F7.9°C 32.2°F0.1°C 37.6°F3.1°C
Winds 2.0 mph S3.2 kmh S 17.0 mph -27.4 kmh - - 6.9 mph 11.1 kmh
Wind Gusts 4.0 mph6.4 kmh 28.0 mph45.1 kmh - -
Humidity 50% 89% 16% 51%
Pressure 30.06 in1017.9 mb 30.23 in1023.7 mb 30.05 in1017.6 mb -
Hour Temp Dew Point Humidity Winds Wind Gusts Pressure Precip Precip Rate Daily Precip Total
08:15 PM 65.3°F18.5°C 46.2°F7.9°C 50% 2.0 mph S3.2 kmh S 4.0 mph6.4 kmh 30.06 in1017.9 mb 0.00 in0.0 mm 0.00 in0.0 mm 0.00 in0.0 mm
08:00 PM 66.6°F19.2°C 46.3°F7.9°C 48% 3.0 mph SSE4.8 kmh SSE 5.0 mph8.0 kmh 30.05 in1017.6 mb 0.00 in0.0 mm 0.00 in0.0 mm 0.00 in0.0 mm
07:45 PM 67.8°F19.9°C 46.3°F7.9°C 46% 4.0 mph S6.4 kmh S 8.0 mph12.9 kmh 30.05 in1017.6 mb 0.00 in0.0 mm 0.00 in0.0 mm 0.00 in0.0 mm
07:30 PM 68.3°F20.2°C 42.4°F5.8°C 39% 3.0 mph W4.8 kmh W 6.0 mph9.7 kmh 30.05 in1017.6 mb 0.00 in0.0 mm 0.00 in0.0 mm 0.00 in0.0 mm
07:15 PM 68.6°F20.3°C 43.9°F6.6°C 41% 3.0 mph WNW4.8 kmh WNW 5.0 mph8.0 kmh 30.05 in1017.6 mb 0.00 in0.0 mm 0.00 in0.0 mm 0.00 in0.0 mm
07:00 PM 69.4°F20.8°C 44.0°F6.7°C 40% 6.0 mph NW9.7 kmh NW 11.0 mph17.7 kmh 30.05 in1017.6 mb 0.00 in0.0 mm 0.00 in0.0 mm 0.00 in0.0 mm
06:45 PM 71.3°F21.8°C 43.7°F6.5°C 37% 7.0 mph NW11.3 kmh NW 11.0 mph17.7 kmh 30.05 in1017.6 mb 0.00 in0.0 mm 0.00 in0.0 mm 0.00 in0.0 mm
06:30 PM 74.1°F23.4°C 43.1°F6.2°C 33% 7.0 mph NNW11.3 kmh NNW 13.0 mph20.9 kmh 30.05 in1017.6 mb 0.00 in0.0 mm 0.00 in0.0 mm 0.00 in0.0 mm
06:15 PM 77.3°F25.2°C 44.3°F6.8°C 31% 7.0 mph NW11.3 kmh NW 13.0 mph20.9 kmh 30.05 in1017.6 mb 0.00 in0.0 mm 0.00 in0.0 mm 0.00 in0.0 mm
06:00 PM 82.4°F28.0°C 45.1°F7.3°C 27% 6.0 mph E9.7 kmh E 11.0 mph17.7 kmh 30.06 in1017.9 mb 0.00 in0.0 mm 0.00 in0.0 mm 0.00 in0.0 mm
05:45 PM 83.0°F28.3°C 32.2°F0.1°C 16% 7.0 mph ESE11.3 kmh ESE 13.0 mph20.9 kmh 30.06 in1017.9 mb 0.00 in0.0 mm 0.00 in0.0 mm 0.00 in0.0 mm
05:30 PM 83.8°F28.8°C 34.3°F1.3°C 17% 6.0 mph ESE9.7 kmh ESE 11.0 mph17.7 kmh 30.06 in1017.9 mb 0.00 in0.0 mm 0.00 in0.0 mm 0.00 in0.0 mm
05:15 PM 84.0°F28.9°C 37.3°F2.9°C 19% 7.0 mph SE11.3 kmh SE 14.0 mph22.5 kmh 30.07 in1018.3 mb 0.00 in0.0 mm 0.00 in0.0 mm 0.00 in0.0 mm
05:00 PM 84.2°F29.0°C 34.6°F1.4°C 17% 5.0 mph SE8.0 kmh SE 13.0 mph20.9 kmh 30.07 in1018.3 mb 0.00 in0.0 mm 0.00 in0.0 mm 0.00 in0.0 mm
04:45 PM 83.2°F28.4°C 35.3°F1.8°C 18% 8.0 mph ESE12.9 kmh ESE 16.0 mph25.7 kmh 30.08 in1018.6 mb 0.00 in0.0 mm 0.00 in0.0 mm 0.00 in0.0 mm
04:30 PM 82.8°F28.2°C 36.3°F2.4°C 19% 11.0 mph ESE17.7 kmh ESE 18.0 mph29.0 kmh 30.08 in1018.6 mb 0.00 in0.0 mm 0.00 in0.0 mm 0.00 in0.0 mm
04:15 PM 83.6°F28.7°C 34.2°F1.2°C 17% 8.0 mph ESE12.9 kmh ESE 14.0 mph22.5 kmh 30.09 in1019.0 mb 0.00 in0.0 mm 0.00 in0.0 mm 0.00 in0.0 mm
04:00 PM 83.0°F28.3°C 37.8°F3.2°C 20% 8.0 mph SE12.9 kmh SE 18.0 mph29.0 kmh 30.10 in1019.3 mb 0.00 in0.0 mm 0.00 in0.0 mm 0.00 in0.0 mm
03:45 PM 83.6°F28.7°C 37.0°F2.8°C 19% 10.0 mph SE16.1 kmh SE 18.0 mph29.0 kmh 30.11 in1019.6 mb 0.00 in0.0 mm 0.00 in0.0 mm 0.00 in0.0 mm
03:30 PM 83.1°F28.4°C 36.6°F2.6°C 19% 9.0 mph SE14.5 kmh SE 17.0 mph27.4 kmh 30.11 in1019.6 mb 0.00 in0.0 mm 0.00 in0.0 mm 0.00 in0.0 mm
03:15 PM 82.7°F28.2°C 36.2°F2.3°C 19% 10.0 mph SE16.1 kmh SE 17.0 mph27.4 kmh 30.12 in1020.0 mb 0.00 in0.0 mm 0.00 in0.0 mm 0.00 in0.0 mm
03:00 PM 82.4°F28.0°C 37.3°F2.9°C 20% 13.0 mph ESE20.9 kmh ESE 21.0 mph33.8 kmh 30.12 in1020.0 mb 0.00 in0.0 mm 0.00 in0.0 mm 0.00 in0.0 mm
02:45 PM 82.0°F27.8°C 37.0°F2.8°C 20% 12.0 mph SE19.3 kmh SE 22.0 mph35.4 kmh 30.13 in1020.3 mb 0.00 in0.0 mm 0.00 in0.0 mm 0.00 in0.0 mm
02:30 PM 81.6°F27.6°C 37.9°F3.3°C 21% 10.0 mph SE16.1 kmh SE 22.0 mph35.4 kmh 30.14 in1020.7 mb 0.00 in0.0 mm 0.00 in0.0 mm 0.00 in0.0 mm
02:15 PM 81.1°F27.3°C 38.6°F3.7°C 22% 13.0 mph ESE20.9 kmh ESE 22.0 mph35.4 kmh 30.14 in1020.7 mb 0.00 in0.0 mm 0.00 in0.0 mm 0.00 in0.0 mm
02:00 PM 80.6°F27.0°C 38.2°F3.4°C 22% 13.0 mph SE20.9 kmh SE 25.0 mph40.2 kmh 30.15 in1021.0 mb 0.00 in0.0 mm 0.00 in0.0 mm 0.00 in0.0 mm
01:45 PM 79.6°F26.4°C 40.7°F4.8°C 25% 14.0 mph SE22.5 kmh SE 25.0 mph40.2 kmh 30.15 in1021.0 mb 0.00 in0.0 mm 0.00 in0.0 mm 0.00 in0.0 mm
01:30 PM 78.6°F25.9°C 37.7°F3.2°C 23% 14.0 mph ESE22.5 kmh ESE 21.0 mph33.8 kmh 30.16 in1021.3 mb 0.00 in0.0 mm 0.00 in0.0 mm 0.00 in0.0 mm
01:15 PM 78.1°F25.6°C 36.1°F2.3°C 22% 15.0 mph SE24.1 kmh SE 24.0 mph38.6 kmh 30.16 in1021.3 mb 0.00 in0.0 mm 0.00 in0.0 mm 0.00 in0.0 mm
01:00 PM 78.0°F25.6°C 37.2°F2.9°C 23% 17.0 mph ESE27.4 kmh ESE 24.0 mph38.6 kmh 30.17 in1021.7 mb 0.00 in0.0 mm 0.00 in0.0 mm 0.00 in0.0 mm
12:45 PM 77.9°F25.5°C 37.1°F2.8°C 23% 13.0 mph ESE20.9 kmh ESE 22.0 mph35.4 kmh 30.18 in1022.0 mb 0.00 in0.0 mm 0.00 in0.0 mm 0.00 in0.0 mm
12:30 PM 76.9°F24.9°C 35.1°F1.7°C 22% 14.0 mph ESE22.5 kmh ESE 22.0 mph35.4 kmh 30.18 in1022.0 mb 0.00 in0.0 mm 0.00 in0.0 mm 0.00 in0.0 mm
12:15 PM 76.5°F24.7°C 35.9°F2.2°C 23% 16.0 mph ESE25.7 kmh ESE 25.0 mph40.2 kmh 30.19 in1022.4 mb 0.00 in0.0 mm 0.00 in0.0 mm 0.00 in0.0 mm
12:00 PM 76.3°F24.6°C 35.8°F2.1°C 23% 14.0 mph ESE22.5 kmh ESE 22.0 mph35.4 kmh 30.20 in1022.7 mb 0.00 in0.0 mm 0.00 in0.0 mm 0.00 in0.0 mm
11:45 AM 75.4°F24.1°C 36.1°F2.3°C 24% 14.0 mph SE22.5 kmh SE 23.0 mph37.0 kmh 30.20 in1022.7 mb 0.00 in0.0 mm 0.00 in0.0 mm 0.00 in0.0 mm
11:30 AM 74.7°F23.7°C 37.5°F3.1°C 26% 15.0 mph ESE24.1 kmh ESE 25.0 mph40.2 kmh 30.21 in1023.0 mb 0.00 in0.0 mm 0.00 in0.0 mm 0.00 in0.0 mm
11:15 AM 74.5°F23.6°C 35.3°F1.8°C 24% 14.0 mph ESE22.5 kmh ESE 24.0 mph38.6 kmh 30.21 in1023.0 mb 0.00 in0.0 mm 0.00 in0.0 mm 0.00 in0.0 mm
11:00 AM 73.4°F23.0°C 35.4°F1.9°C 25% 16.0 mph ESE25.7 kmh ESE 26.0 mph41.8 kmh 30.22 in1023.4 mb 0.00 in0.0 mm 0.00 in0.0 mm 0.00 in0.0 mm
10:45 AM 73.0°F22.8°C 35.1°F1.7°C 25% 15.0 mph ESE24.1 kmh ESE 28.0 mph45.1 kmh 30.21 in1023.0 mb 0.00 in0.0 mm 0.00 in0.0 mm 0.00 in0.0 mm
10:30 AM 72.3°F22.4°C 35.5°F1.9°C 26% 16.0 mph ESE25.7 kmh ESE 26.0 mph41.8 kmh 30.21 in1023.0 mb 0.00 in0.0 mm 0.00 in0.0 mm 0.00 in0.0 mm
10:15 AM 71.7°F22.1°C 35.9°F2.2°C 27% 16.0 mph ESE25.7 kmh ESE 25.0 mph40.2 kmh 30.21 in1023.0 mb 0.00 in0.0 mm 0.00 in0.0 mm 0.00 in0.0 mm
10:00 AM 71.0°F21.7°C 34.4°F1.3°C 26% 17.0 mph SE27.4 kmh SE 25.0 mph40.2 kmh 30.21 in1023.0 mb 0.00 in0.0 mm 0.00 in0.0 mm 0.00 in0.0 mm
09:45 AM 70.7°F21.5°C 34.1°F1.2°C 26% 14.0 mph ESE22.5 kmh ESE 23.0 mph37.0 kmh 30.21 in1023.0 mb 0.00 in0.0 mm 0.00 in0.0 mm 0.00 in0.0 mm
09:30 AM 69.2°F20.7°C 36.4°F2.4°C 30% 11.0 mph E17.7 kmh E 18.0 mph29.0 kmh 30.22 in1023.4 mb 0.00 in0.0 mm 0.00 in0.0 mm 0.00 in0.0 mm
09:15 AM 67.0°F19.4°C 36.1°F2.3°C 32% 12.0 mph E19.3 kmh E 18.0 mph29.0 kmh 30.22 in1023.4 mb 0.00 in0.0 mm 0.00 in0.0 mm 0.00 in0.0 mm
09:00 AM 64.7°F18.2°C 36.4°F2.4°C 35% 9.0 mph ESE14.5 kmh ESE 16.0 mph25.7 kmh 30.22 in1023.4 mb 0.00 in0.0 mm 0.00 in0.0 mm 0.00 in0.0 mm
08:45 AM 59.1°F15.1°C 37.8°F3.2°C 45% 5.0 mph ESE8.0 kmh ESE 12.0 mph19.3 kmh 30.22 in1023.4 mb 0.00 in0.0 mm 0.00 in0.0 mm 0.00 in0.0 mm
08:30 AM 53.7°F12.1°C 39.3°F4.1°C 58% 3.0 mph ESE4.8 kmh ESE 5.0 mph8.0 kmh 30.22 in1023.4 mb 0.00 in0.0 mm 0.00 in0.0 mm 0.00 in0.0 mm
08:15 AM 49.3°F9.6°C 40.3°F4.6°C 71% 1.0 mph S1.6 kmh S 3.0 mph4.8 kmh 30.22 in1023.4 mb 0.00 in0.0 mm 0.00 in0.0 mm 0.00 in0.0 mm
08:00 AM 45.1°F7.3°C 39.0°F3.9°C 79% 1.0 mph SE1.6 kmh SE 2.0 mph3.2 kmh 30.23 in1023.7 mb 0.00 in0.0 mm 0.00 in0.0 mm 0.00 in0.0 mm
07:45 AM 43.2°F6.2°C 39.0°F3.9°C 85% 1.0 mph SSE1.6 kmh SSE 4.0 mph6.4 kmh 30.23 in1023.7 mb 0.00 in0.0 mm 0.00 in0.0 mm 0.00 in0.0 mm
07:30 AM 41.6°F5.3°C 37.7°F3.2°C 86% 1.0 mph S1.6 kmh S 4.0 mph6.4 kmh 30.22 in1023.4 mb 0.00 in0.0 mm 0.00 in0.0 mm 0.00 in0.0 mm
07:15 AM 40.7°F4.8°C 36.8°F2.7°C 86% 1.0 mph S1.6 kmh S 2.0 mph3.2 kmh 30.22 in1023.4 mb 0.00 in0.0 mm 0.00 in0.0 mm 0.00 in0.0 mm
07:00 AM 40.1°F4.5°C 36.2°F2.3°C 86% 2.0 mph S3.2 kmh S 3.0 mph4.8 kmh 30.22 in1023.4 mb 0.00 in0.0 mm 0.00 in0.0 mm 0.00 in0.0 mm
06:45 AM 39.7°F4.3°C 36.1°F2.3°C 87% 3.0 mph S4.8 kmh S 4.0 mph6.4 kmh 30.21 in1023.0 mb 0.00 in0.0 mm 0.00 in0.0 mm 0.00 in0.0 mm
06:30 AM 39.4°F4.1°C 35.9°F2.2°C 87% 4.0 mph S6.4 kmh S 7.0 mph11.3 kmh 30.20 in1022.7 mb 0.00 in0.0 mm 0.00 in0.0 mm 0.00 in0.0 mm
06:15 AM 39.5°F4.2°C 36.5°F2.5°C 89% 3.0 mph S4.8 kmh S 5.0 mph8.0 kmh 30.20 in1022.7 mb 0.00 in0.0 mm 0.00 in0.0 mm 0.00 in0.0 mm
06:00 AM 38.9°F3.8°C 35.9°F2.2°C 89% 3.0 mph SSW4.8 kmh SSW 5.0 mph8.0 kmh 30.19 in1022.4 mb 0.00 in0.0 mm 0.00 in0.0 mm 0.00 in0.0 mm
05:45 AM 38.6°F3.7°C 35.6°F2.0°C 89% 2.0 mph S3.2 kmh S 3.0 mph4.8 kmh 30.19 in1022.4 mb 0.00 in0.0 mm 0.00 in0.0 mm 0.00 in0.0 mm
05:30 AM 38.7°F3.7°C 35.7°F2.1°C 89% 3.0 mph S4.8 kmh S 4.0 mph6.4 kmh 30.20 in1022.7 mb 0.00 in0.0 mm 0.00 in0.0 mm 0.00 in0.0 mm
05:15 AM 38.6°F3.7°C 35.4°F1.9°C 88% 3.0 mph S4.8 kmh S 5.0 mph8.0 kmh 30.19 in1022.4 mb 0.00 in0.0 mm 0.00 in0.0 mm 0.00 in0.0 mm
05:00 AM 38.8°F3.8°C 35.6°F2.0°C 88% 2.0 mph S3.2 kmh S 3.0 mph4.8 kmh 30.20 in1022.7 mb 0.00 in0.0 mm 0.00 in0.0 mm 0.00 in0.0 mm
04:45 AM 38.8°F3.8°C 35.6°F2.0°C 88% 2.0 mph S3.2 kmh S 5.0 mph8.0 kmh 30.20 in1022.7 mb 0.00 in0.0 mm 0.00 in0.0 mm 0.00 in0.0 mm
04:30 AM 38.9°F3.8°C 35.4°F1.9°C 87% 1.0 mph S1.6 kmh S 2.0 mph3.2 kmh 30.20 in1022.7 mb 0.00 in0.0 mm 0.00 in0.0 mm 0.00 in0.0 mm
04:15 AM 39.0°F3.9°C 35.5°F1.9°C 87% 1.0 mph S1.6 kmh S 3.0 mph4.8 kmh 30.19 in1022.4 mb 0.00 in0.0 mm 0.00 in0.0 mm 0.00 in0.0 mm
04:00 AM 39.2°F4.0°C 35.4°F1.9°C 86% 1.0 mph S1.6 kmh S 3.0 mph4.8 kmh 30.19 in1022.4 mb 0.00 in0.0 mm 0.00 in0.0 mm 0.00 in0.0 mm
03:45 AM 39.5°F4.2°C 35.7°F2.1°C 86% 2.0 mph S3.2 kmh S 5.0 mph8.0 kmh 30.18 in1022.0 mb 0.00 in0.0 mm 0.00 in0.0 mm 0.00 in0.0 mm
03:30 AM 39.8°F4.3°C 35.7°F2.1°C 85% 2.0 mph S3.2 kmh S 3.0 mph4.8 kmh 30.18 in1022.0 mb 0.00 in0.0 mm 0.00 in0.0 mm 0.00 in0.0 mm
03:15 AM 40.2°F4.6°C 36.3°F2.4°C 86% 2.0 mph S3.2 kmh S 3.0 mph4.8 kmh 30.18 in1022.0 mb 0.00 in0.0 mm 0.00 in0.0 mm 0.00 in0.0 mm
03:00 AM 40.5°F4.7°C 36.3°F2.4°C 85% 3.0 mph S4.8 kmh S 5.0 mph8.0 kmh 30.18 in1022.0 mb 0.00 in0.0 mm 0.00 in0.0 mm 0.00 in0.0 mm
02:45 AM 40.9°F4.9°C 36.7°F2.6°C 85% 2.0 mph SSE3.2 kmh SSE 4.0 mph6.4 kmh 30.18 in1022.0 mb 0.00 in0.0 mm 0.00 in0.0 mm 0.00 in0.0 mm
02:30 AM 41.1°F5.1°C 36.9°F2.7°C 85% 3.0 mph S4.8 kmh S 5.0 mph8.0 kmh 30.18 in1022.0 mb 0.00 in0.0 mm 0.00 in0.0 mm 0.00 in0.0 mm
02:15 AM 41.4°F5.2°C 36.9°F2.7°C 84% 2.0 mph SSE3.2 kmh SSE 4.0 mph6.4 kmh 30.19 in1022.4 mb 0.00 in0.0 mm 0.00 in0.0 mm 0.00 in0.0 mm
02:00 AM 41.7°F5.4°C 37.2°F2.9°C 84% 2.0 mph SE3.2 kmh SE 4.0 mph6.4 kmh 30.19 in1022.4 mb 0.00 in0.0 mm 0.00 in0.0 mm 0.00 in0.0 mm
01:45 AM 42.3°F5.7°C 38.1°F3.4°C 85% 2.0 mph S3.2 kmh S 3.0 mph4.8 kmh 30.19 in1022.4 mb 0.00 in0.0 mm 0.00 in0.0 mm 0.00 in0.0 mm
01:30 AM 42.3°F5.7°C 37.5°F3.1°C 83% 1.0 mph S1.6 kmh S 3.0 mph4.8 kmh 30.20 in1022.7 mb 0.00 in0.0 mm 0.00 in0.0 mm 0.00 in0.0 mm
01:15 AM 42.6°F5.9°C 37.8°F3.2°C 83% 2.0 mph SSW3.2 kmh SSW 4.0 mph6.4 kmh 30.20 in1022.7 mb 0.00 in0.0 mm 0.00 in0.0 mm 0.00 in0.0 mm
01:00 AM 42.9°F6.1°C 37.5°F3.1°C 81% 2.0 mph S3.2 kmh S 4.0 mph6.4 kmh 30.21 in1023.0 mb 0.00 in0.0 mm 0.00 in0.0 mm 0.00 in0.0 mm
12:45 AM 43.6°F6.4°C 38.2°F3.4°C 81% 2.0 mph S3.2 kmh S 3.0 mph4.8 kmh 30.21 in1023.0 mb 0.00 in0.0 mm 0.00 in0.0 mm 0.00 in0.0 mm
12:30 AM 44.1°F6.7°C 38.3°F3.5°C 80% 2.0 mph S3.2 kmh S 4.0 mph6.4 kmh 30.21 in1023.0 mb 0.00 in0.0 mm 0.00 in0.0 mm 0.00 in0.0 mm
12:15 AM 44.5°F6.9°C 39.0°F3.9°C 81% 4.0 mph S6.4 kmh S 6.0 mph9.7 kmh 30.21 in1023.0 mb 0.00 in0.0 mm 0.00 in0.0 mm 0.00 in0.0 mm
12:00 AM 45.1°F7.3°C 39.3°F4.1°C 80% 3.0 mph S4.8 kmh S 6.0 mph9.7 kmh 30.21 in1023.0 mb 0.00 in0.0 mm 0.00 in0.0 mm 0.00 in0.0 mm